createdAt,value
2022-08-04T00:01:22.292Z,3.9
2022-08-04T00:06:22.243Z,4.2
2022-08-04T00:11:22.240Z,3.8
2022-08-04T00:16:22.232Z,3.9
2022-08-04T00:21:22.240Z,4
2022-08-04T00:26:22.244Z,3.3
2022-08-04T00:31:54.289Z,3.9
2022-08-04T00:36:22.180Z,3.7
2022-08-04T00:41:22.148Z,3.1
2022-08-04T00:46:22.148Z,3.3
2022-08-04T00:51:22.059Z,3.5
2022-08-04T00:56:22.061Z,3.3
2022-08-04T01:01:22.091Z,3.4
2022-08-04T01:06:21.971Z,3.3
2022-08-04T01:11:21.960Z,4.4
2022-08-04T01:16:21.935Z,3.8
2022-08-04T01:21:21.852Z,3.7
2022-08-04T01:26:43.660Z,4.1
2022-08-04T01:31:21.728Z,3
2022-08-04T01:36:21.780Z,3.5
2022-08-04T01:41:32.266Z,3.2
2022-08-04T01:46:21.608Z,3.2
2022-08-04T01:51:21.552Z,2.9
2022-08-04T01:56:21.524Z,3.3
2022-08-04T02:01:21.510Z,3.1
2022-08-04T02:06:21.461Z,3.1
2022-08-04T02:11:21.418Z,2.8
2022-08-04T02:16:21.379Z,2.9
2022-08-04T02:21:21.301Z,3.2
2022-08-04T02:26:22.626Z,3.4
2022-08-04T02:31:21.137Z,3
2022-08-04T02:36:21.105Z,2.9
2022-08-04T02:41:21.052Z,3.4
2022-08-04T02:46:21.013Z,2.9
2022-08-04T02:51:20.964Z,2.8
2022-08-04T02:56:20.916Z,2.8
2022-08-04T03:01:20.878Z,3.1
2022-08-04T03:06:20.800Z,2.9
2022-08-04T03:11:20.723Z,2.6
2022-08-04T03:16:20.676Z,3.3
2022-08-04T03:21:20.587Z,28.5
2022-08-04T03:26:20.589Z,32.1
2022-08-04T03:31:20.519Z,34.9
2022-08-04T03:36:20.468Z,21.6
2022-08-04T03:41:55.077Z,15.2
2022-08-04T03:46:20.347Z,8
2022-08-04T03:51:32.493Z,5.3
2022-08-04T03:56:20.207Z,5.6
2022-08-04T04:01:20.186Z,4.3
2022-08-04T04:06:20.068Z,3.8
2022-08-04T04:11:20.044Z,3.6
2022-08-04T04:16:20.006Z,3.6
2022-08-04T04:21:19.910Z,3.3
2022-08-04T04:26:19.909Z,3.2
2022-08-04T04:31:19.816Z,3.3
2022-08-04T04:36:19.763Z,3.6
2022-08-04T04:41:19.720Z,3.8
2022-08-04T04:46:19.603Z,3.4
2022-08-04T04:51:19.505Z,4
2022-08-04T04:56:19.443Z,3.4
2022-08-04T05:01:19.354Z,3.4
2022-08-04T05:06:19.307Z,3.5
2022-08-04T05:11:19.243Z,3.1
2022-08-04T05:16:19.205Z,3.3
2022-08-04T05:21:19.141Z,3
2022-08-04T05:26:19.083Z,3.4
2022-08-04T05:31:19.046Z,3.3
2022-08-04T05:36:29.368Z,3.2
2022-08-04T05:41:18.961Z,3
2022-08-04T05:46:18.885Z,3.2
2022-08-04T05:51:18.858Z,3.4
2022-08-04T05:56:18.824Z,3.7
2022-08-04T06:01:18.805Z,3.2
2022-08-04T06:06:18.710Z,3.4
2022-08-04T06:11:18.648Z,3.5
2022-08-04T06:16:29.319Z,3
2022-08-04T06:21:18.533Z,3.1
2022-08-04T06:26:18.493Z,2.8
2022-08-04T06:32:29.566Z,3.4
2022-08-04T06:36:18.408Z,3.1
2022-08-04T06:41:18.331Z,2.7
2022-08-04T06:46:18.360Z,2.5
2022-08-04T06:51:34.465Z,2.3
2022-08-04T06:56:18.333Z,2.6
2022-08-04T07:01:18.450Z,2.5
2022-08-04T07:06:18.297Z,2.6
2022-08-04T07:11:18.310Z,2.5
2022-08-04T07:16:18.307Z,2.3
2022-08-04T07:21:18.293Z,2.6
2022-08-04T07:26:18.342Z,2.6
2022-08-04T07:31:34.572Z,2.2
2022-08-04T07:36:18.389Z,2.6
2022-08-04T07:41:36.944Z,2.5
2022-08-04T07:46:18.376Z,2.2
2022-08-04T07:51:18.405Z,2
2022-08-04T07:56:18.432Z,2.4
2022-08-04T08:01:18.492Z,2.1
2022-08-04T08:06:33.072Z,2.2
2022-08-04T08:11:18.620Z,2.2
2022-08-04T08:16:18.684Z,2.2
2022-08-04T08:21:18.701Z,2.4
2022-08-04T08:26:18.748Z,1.7
2022-08-04T08:31:18.795Z,2.2
2022-08-04T08:36:18.858Z,2.3
2022-08-04T08:41:18.934Z,2.1
2022-08-04T08:46:33.185Z,2.2
2022-08-04T08:51:19.046Z,2.1
2022-08-04T08:56:19.062Z,2.2
2022-08-04T09:01:19.195Z,2.7
2022-08-04T09:06:19.225Z,2.4
2022-08-04T09:11:20.545Z,2.4
2022-08-04T09:16:19.332Z,2.6
2022-08-04T09:21:19.383Z,2.6
2022-08-04T09:26:19.513Z,2.7
2022-08-04T09:31:19.553Z,2.6
2022-08-04T09:36:26.132Z,2.7
2022-08-04T09:41:27.581Z,2.6
2022-08-04T09:46:19.918Z,2.8
2022-08-04T09:51:20.043Z,2.5
2022-08-04T09:56:20.210Z,2.6
2022-08-04T10:01:23.768Z,2.7
2022-08-04T10:06:20.399Z,2.7
2022-08-04T10:11:20.539Z,3.4
2022-08-04T10:16:20.698Z,3.1
2022-08-04T10:21:20.823Z,2.9
2022-08-04T10:26:20.977Z,2.8
2022-08-04T10:31:21.115Z,2.8
2022-08-04T10:36:21.248Z,3
2022-08-04T10:41:21.426Z,2.9
2022-08-04T10:46:21.572Z,3.1
2022-08-04T10:51:21.744Z,3.3
2022-08-04T10:56:21.927Z,2.9
2022-08-04T11:01:59.922Z,3.3
2022-08-04T11:06:22.278Z,3
2022-08-04T11:11:22.500Z,3.1
2022-08-04T11:16:22.611Z,3.4
2022-08-04T11:21:22.754Z,2.8
2022-08-04T11:26:22.914Z,3.2
2022-08-04T11:31:24.278Z,2.8
2022-08-04T11:36:23.301Z,3.2
2022-08-04T11:41:23.457Z,2.7
2022-08-04T11:46:23.636Z,2.8
2022-08-04T11:51:23.836Z,2.7
2022-08-04T11:56:36.898Z,2.8
2022-08-04T12:01:24.208Z,3
2022-08-04T12:06:24.443Z,2.8
2022-08-04T12:11:24.629Z,3
2022-08-04T12:16:30.697Z,3.1
2022-08-04T12:21:25.078Z,2.6
2022-08-04T12:26:25.297Z,3.5
2022-08-04T12:31:25.518Z,2.7
2022-08-04T12:36:25.735Z,2.9
2022-08-04T12:41:25.955Z,2.9
2022-08-04T12:46:26.117Z,2.8
2022-08-04T12:51:56.004Z,3.2
2022-08-04T12:56:26.589Z,3
2022-08-04T13:02:08.199Z,2.8
2022-08-04T13:06:26.994Z,2.8
2022-08-04T13:11:27.230Z,2.9
2022-08-04T13:16:27.449Z,2.9
2022-08-04T13:22:01.723Z,2.9
2022-08-04T13:26:43.169Z,3.1
2022-08-04T13:31:35.763Z,2.7
2022-08-04T13:36:28.210Z,2.7
2022-08-04T13:41:31.077Z,3.2
2022-08-04T13:46:28.910Z,2.7
2022-08-04T13:51:58.401Z,2.9
2022-08-04T13:56:28.978Z,3
2022-08-04T14:01:35.537Z,2.8
2022-08-04T14:06:29.373Z,2.9
2022-08-04T14:12:10.732Z,2.4
2022-08-04T14:16:29.737Z,3.2
2022-08-04T14:21:29.935Z,2.9
2022-08-04T14:26:32.808Z,2.9
2022-08-04T14:31:31.094Z,3
2022-08-04T14:36:30.471Z,2.9
2022-08-04T14:41:30.672Z,2.7
2022-08-04T14:46:36.774Z,3.1
2022-08-04T14:51:36.458Z,3
2022-08-04T14:56:46.849Z,3.1
2022-08-04T15:01:31.635Z,3
2022-08-04T15:06:31.756Z,3.1
2022-08-04T15:11:31.980Z,2.6
2022-08-04T15:16:32.212Z,3.4
2022-08-04T15:21:32.421Z,3.1
2022-08-04T15:26:32.715Z,3
2022-08-04T15:32:07.954Z,3
2022-08-04T15:36:33.149Z,2.9
2022-08-04T15:41:33.370Z,2.7
2022-08-04T15:46:43.101Z,3.2
2022-08-04T15:51:33.872Z,3.4
2022-08-04T15:56:34.110Z,4.5
2022-08-04T16:01:34.375Z,4.7
2022-08-04T16:06:34.614Z,5.4
2022-08-04T16:11:34.835Z,4.3
2022-08-04T16:16:35.107Z,5.1
2022-08-04T16:21:35.354Z,5.7
2022-08-04T16:26:35.576Z,5.8
2022-08-04T16:31:36.837Z,5.1
2022-08-04T16:36:36.077Z,6.6
2022-08-04T16:41:36.284Z,6.3
2022-08-04T16:46:36.555Z,6.1
2022-08-04T16:51:36.780Z,9.2
2022-08-04T16:56:36.997Z,10.8
2022-08-04T17:01:39.363Z,6.5
2022-08-04T17:06:37.461Z,10.7
2022-08-04T17:11:37.669Z,10.7
2022-08-04T17:16:37.888Z,12.1
2022-08-04T17:21:38.089Z,10.5
2022-08-04T17:26:40.307Z,12.8
2022-08-04T17:31:38.472Z,21.8
2022-08-04T17:36:38.716Z,13.1
2022-08-04T17:41:39.580Z,13.3
2022-08-04T17:46:39.257Z,10.7
2022-08-04T17:52:04.829Z,6.6
2022-08-04T17:56:43.081Z,6.4
2022-08-04T18:01:39.788Z,5.8
2022-08-04T18:06:40.028Z,5.8
2022-08-04T18:11:41.768Z,5.7
2022-08-04T18:16:40.358Z,10.7
2022-08-04T18:21:46.606Z,4.4
2022-08-04T18:26:40.698Z,4
2022-08-04T18:31:40.894Z,4.1
2022-08-04T18:36:41.060Z,4.9
2022-08-04T18:38:37.098Z,4.9
2022-08-04T18:42:02.139Z,5.8
2022-08-04T18:46:41.383Z,5.4
2022-08-04T18:51:41.568Z,5.4
2022-08-04T18:57:16.761Z,6
2022-08-04T19:02:13.788Z,5.8
2022-08-04T19:06:42.016Z,6.1
2022-08-04T19:11:54.579Z,9.5
2022-08-04T19:16:46.004Z,12
2022-08-04T19:22:00.801Z,11.6
2022-08-04T19:26:42.809Z,10.9
2022-08-04T19:31:42.626Z,11.5
2022-08-04T19:36:45.978Z,10.1
2022-08-04T19:42:05.819Z,8.5
2022-08-04T19:46:42.994Z,7.4
2022-08-04T19:51:44.040Z,6.5
2022-08-04T19:56:43.232Z,6.7
2022-08-04T20:01:45.542Z,5.9
2022-08-04T20:06:43.471Z,5.2
2022-08-04T20:11:43.550Z,5.7
2022-08-04T20:16:43.630Z,4.8
2022-08-04T20:21:55.641Z,5.4
2022-08-04T20:26:43.878Z,4.5
2022-08-04T20:31:44.002Z,5.1
2022-08-04T20:36:49.914Z,5.3
2022-08-04T20:41:44.899Z,5.5
2022-08-04T20:46:44.327Z,5.7
2022-08-04T20:51:44.449Z,5.4
2022-08-04T20:56:50.793Z,5.8
2022-08-04T21:01:45.301Z,4.9
2022-08-04T21:06:44.611Z,5.2
2022-08-04T21:11:44.668Z,4.8
2022-08-04T21:16:55.763Z,4.7
2022-08-04T21:21:44.811Z,4.5
2022-08-04T21:26:46.346Z,4.4
2022-08-04T21:31:50.967Z,4.6
2022-08-04T21:36:44.976Z,4
2022-08-04T21:42:26.560Z,4.6
2022-08-04T21:46:45.078Z,3.8
2022-08-04T21:52:00.462Z,4
2022-08-04T21:56:51.025Z,4.1
2022-08-04T22:01:51.871Z,3.7
2022-08-04T22:06:52.094Z,4
2022-08-04T22:11:49.329Z,4.2
2022-08-04T22:16:45.438Z,3.8
2022-08-04T22:21:46.604Z,3.7
2022-08-04T22:26:45.262Z,3.6
2022-08-04T22:31:55.821Z,3.6
2022-08-04T22:36:45.322Z,3.4
2022-08-04T22:41:48.854Z,5.2
2022-08-04T22:46:45.369Z,4.3
2022-08-04T22:51:48.327Z,4.2
2022-08-04T22:56:45.805Z,4.3
2022-08-04T23:01:58.875Z,4.1
2022-08-04T23:06:45.615Z,3.9
2022-08-04T23:16:45.514Z,3.8
2022-08-04T23:21:47.270Z,4.4
2022-08-04T23:26:45.455Z,3.6
2022-08-04T23:31:59.789Z,4.1
2022-08-04T23:36:45.388Z,3.8
2022-08-04T23:41:53.714Z,3.5
2022-08-04T23:46:45.390Z,3.8
2022-08-04T23:51:45.353Z,3.7
2022-08-04T23:56:45.302Z,3.5
